createdAt,value
2022-11-28T00:00:09.120Z,32.83
2022-11-28T00:02:40.381Z,33.10
2022-11-28T00:05:12.012Z,30.23
2022-11-28T00:07:41.474Z,31.35
2022-11-28T00:10:12.166Z,32.10
2022-11-28T00:12:41.742Z,31.17
2022-11-28T00:15:12.633Z,31.20
2022-11-28T00:17:42.042Z,33.35
2022-11-28T00:20:11.570Z,34.35
2022-11-28T00:22:40.798Z,28.60
2022-11-28T00:25:10.119Z,28.07
2022-11-28T00:27:39.485Z,34.38
2022-11-28T00:30:09.771Z,33.40
2022-11-28T00:32:39.073Z,32.17
2022-11-28T00:35:08.933Z,32.05
2022-11-28T00:37:38.429Z,28.85
2022-11-28T00:40:08.590Z,32.03
2022-11-28T00:42:37.840Z,27.73
2022-11-28T00:45:07.705Z,27.93
2022-11-28T00:47:36.957Z,30.05
2022-11-28T00:50:07.226Z,26.20
2022-11-28T00:52:36.584Z,28.45
2022-11-28T00:55:06.359Z,28.73
2022-11-28T00:57:35.594Z,29.32
2022-11-28T01:00:06.867Z,26.33
2022-11-28T01:02:36.489Z,28.70
2022-11-28T01:05:06.436Z,25.92
2022-11-28T01:07:35.695Z,24.00
2022-11-28T01:10:05.524Z,24.60
2022-11-28T01:12:34.898Z,24.45
2022-11-28T01:15:06.936Z,25.32
2022-11-28T01:17:36.465Z,28.30
2022-11-28T01:20:09.097Z,25.70
2022-11-28T01:25:07.560Z,24.55
2022-11-28T01:27:36.964Z,23.80
2022-11-28T01:30:08.013Z,28.80
2022-11-28T01:32:37.412Z,29.42
2022-11-28T01:35:07.140Z,22.80
2022-11-28T01:37:36.418Z,30.15
2022-11-28T01:40:07.229Z,33.18
2022-11-28T01:42:36.658Z,26.30
2022-11-28T01:45:14.899Z,25.15
2022-11-28T01:47:44.674Z,26.57
2022-11-28T01:50:14.658Z,26.57
2022-11-28T01:52:46.145Z,23.83
2022-11-28T01:55:17.618Z,28.05
2022-11-28T01:57:46.935Z,25.95
2022-11-28T02:00:19.248Z,26.80
2022-11-28T02:02:57.564Z,24.47
2022-11-28T02:05:27.100Z,24.25
2022-11-28T02:07:56.574Z,25.10
2022-11-28T02:10:28.953Z,20.75
2022-11-28T02:13:16.181Z,23.75
2022-11-28T02:15:57.437Z,23.73
2022-11-28T02:18:35.878Z,20.92
2022-11-28T02:21:10.992Z,26.37
2022-11-28T02:24:09.056Z,24.52
2022-11-28T02:26:46.993Z,23.47
2022-11-28T02:29:25.389Z,25.27
2022-11-28T02:32:16.020Z,23.00
2022-11-28T02:35:11.197Z,22.48
2022-11-28T02:37:58.448Z,23.10
2022-11-28T02:40:42.756Z,23.85
2022-11-28T02:43:33.307Z,25.12
2022-11-28T02:46:17.284Z,21.17
2022-11-28T02:48:52.798Z,19.75
2022-11-28T02:51:31.588Z,23.92
2022-11-28T02:54:03.582Z,22.20
2022-11-28T02:56:32.779Z,23.65
2022-11-28T02:59:02.336Z,24.40
2022-11-28T03:01:37.132Z,24.00
2022-11-28T03:04:35.662Z,23.30
2022-11-28T03:07:24.832Z,22.35
2022-11-28T03:10:06.076Z,24.00
2022-11-28T03:12:56.506Z,20.50
2022-11-28T03:15:29.110Z,23.18
2022-11-28T03:20:48.749Z,21.80
2022-11-28T03:23:24.075Z,22.13
2022-11-28T03:26:25.239Z,22.65
2022-11-28T03:29:07.310Z,26.93
2022-11-28T03:31:39.715Z,25.02
2022-11-28T03:34:11.453Z,22.80
2022-11-28T03:36:44.077Z,22.37
2022-11-28T03:41:48.670Z,28.23
2022-11-28T03:44:21.174Z,29.40
2022-11-28T03:46:51.106Z,27.58
2022-11-28T03:49:23.504Z,29.05
2022-11-28T03:51:58.841Z,27.62
2022-11-28T03:54:40.513Z,31.90
2022-11-28T03:57:12.562Z,29.70
2022-11-28T03:59:44.285Z,27.80
2022-11-28T04:02:21.938Z,28.17
2022-11-28T04:04:54.331Z,30.70
2022-11-28T04:07:29.685Z,28.47
2022-11-28T04:10:11.472Z,27.75
2022-11-28T04:13:02.037Z,29.98
2022-11-28T04:15:51.300Z,28.90
2022-11-28T04:18:26.417Z,29.30
2022-11-28T04:21:19.981Z,30.08
2022-11-28T04:23:49.891Z,32.20
2022-11-28T04:26:27.774Z,31.40
2022-11-28T04:28:59.050Z,31.95
2022-11-28T04:31:28.625Z,37.08
2022-11-28T04:34:01.260Z,33.38
2022-11-28T04:38:59.952Z,33.30
2022-11-28T04:41:35.507Z,36.10
2022-11-28T04:44:07.935Z,36.55
2022-11-28T04:46:40.892Z,38.15
2022-11-28T04:49:11.037Z,40.28
2022-11-28T04:51:49.116Z,36.88
2022-11-28T04:54:24.440Z,40.52
2022-11-28T04:56:57.245Z,38.53
2022-11-28T04:59:27.930Z,38.30
2022-11-28T05:01:58.440Z,40.65
2022-11-28T05:04:27.751Z,40.08
2022-11-28T05:07:08.540Z,43.42
2022-11-28T05:09:38.506Z,46.70
2022-11-28T05:12:08.237Z,42.30
2022-11-28T05:14:37.525Z,44.58
2022-11-28T05:17:07.145Z,43.85
2022-11-28T05:19:36.362Z,46.05
2022-11-28T05:22:05.589Z,47.25
2022-11-28T05:24:34.828Z,46.70
2022-11-28T05:27:04.630Z,47.83
2022-11-28T05:29:33.864Z,49.90
2022-11-28T05:32:03.363Z,50.98
2022-11-28T05:34:32.801Z,51.73
2022-11-28T05:37:02.041Z,50.55
2022-11-28T05:39:31.779Z,55.88
2022-11-28T05:42:01.007Z,57.67
2022-11-28T05:44:30.343Z,60.12
2022-11-28T05:46:59.578Z,62.17
2022-11-28T05:49:29.186Z,59.73
2022-11-28T05:51:58.571Z,62.62
2022-11-28T05:54:28.681Z,60.95
2022-11-28T05:56:58.344Z,63.15
2022-11-28T05:59:28.047Z,63.92
2022-11-28T06:01:57.359Z,64.65
2022-11-28T06:04:26.970Z,66.77
2022-11-28T06:06:56.302Z,71.28
2022-11-28T06:09:26.385Z,68.80
2022-11-28T06:11:55.798Z,76.30
2022-11-28T06:14:25.074Z,79.22
2022-11-28T06:16:57.102Z,91.35
2022-11-28T06:19:26.441Z,93.78
2022-11-28T06:21:56.411Z,82.90
2022-11-28T06:24:25.802Z,92.47
2022-11-28T06:26:55.315Z,96.85
2022-11-28T06:29:24.689Z,93.58
2022-11-28T06:31:54.172Z,106.65
2022-11-28T06:34:24.461Z,101.50
2022-11-28T06:36:53.682Z,100.35
2022-11-28T06:39:22.921Z,96.75
2022-11-28T06:41:52.156Z,95.83
2022-11-28T06:44:21.782Z,108.52
2022-11-28T06:46:51.141Z,104.07
2022-11-28T06:49:20.577Z,102.30
2022-11-28T06:51:49.844Z,104.07
2022-11-28T06:54:19.158Z,107.47
2022-11-28T06:56:48.883Z,115.77
2022-11-28T06:59:18.269Z,112.47
2022-11-28T07:01:47.808Z,110.92
2022-11-28T07:04:17.326Z,112.85
2022-11-28T07:06:46.924Z,113.83
2022-11-28T07:09:16.515Z,126.15
2022-11-28T07:11:46.048Z,124.82
2022-11-28T07:14:15.847Z,112.08
2022-11-28T07:16:45.617Z,119.17
2022-11-28T07:19:15.262Z,131.52
2022-11-28T07:21:44.565Z,126.02
2022-11-28T07:24:14.907Z,128.50
2022-11-28T07:26:44.341Z,158.40
2022-11-28T07:29:18.604Z,154.20
2022-11-28T07:31:48.607Z,160.50
2022-11-28T07:34:18.242Z,134.50
2022-11-28T07:36:47.858Z,154.23
2022-11-28T07:39:17.960Z,149.07
2022-11-28T07:41:47.404Z,131.82
2022-11-28T07:44:20.142Z,141.97
2022-11-28T07:49:18.356Z,149.05
2022-11-28T07:51:47.563Z,172.75
2022-11-28T07:54:16.979Z,182.17
2022-11-28T07:59:17.407Z,166.45
2022-11-28T08:01:46.678Z,161.77
2022-11-28T08:04:16.140Z,159.85
2022-11-28T08:06:45.589Z,182.78
2022-11-28T08:09:15.226Z,174.50
2022-11-28T08:11:44.451Z,162.15
2022-11-28T08:14:14.551Z,166.40
2022-11-28T08:16:45.980Z,175.27
2022-11-28T08:19:15.540Z,179.07
2022-11-28T08:21:44.883Z,194.70
2022-11-28T08:24:14.911Z,190.97
2022-11-28T08:26:44.251Z,194.35
2022-11-28T08:29:13.747Z,208.65
2022-11-28T08:31:43.543Z,192.35
2022-11-28T08:34:12.953Z,210.68
2022-11-28T08:36:43.579Z,196.12
2022-11-28T08:39:28.534Z,232.25
2022-11-28T08:41:44.193Z,251.32
2022-11-28T08:44:13.897Z,205.27
2022-11-28T08:46:43.416Z,199.50
2022-11-28T08:49:12.957Z,199.38
2022-11-28T08:51:42.250Z,219.10
2022-11-28T08:54:11.651Z,170.82
2022-11-28T08:56:40.868Z,203.35
2022-11-28T08:59:11.022Z,200.32
2022-11-28T09:01:40.364Z,186.45
2022-11-28T09:04:09.981Z,175.35
2022-11-28T09:06:42.254Z,197.00
2022-11-28T09:09:11.796Z,164.10
2022-11-28T09:11:41.321Z,179.70
2022-11-28T09:14:11.099Z,177.02
2022-11-28T09:16:41.658Z,161.10
2022-11-28T09:19:11.236Z,183.12
2022-11-28T09:21:41.656Z,158.32
2022-11-28T09:24:12.891Z,163.05
2022-11-28T09:26:42.794Z,141.03
2022-11-28T09:29:12.038Z,155.22
2022-11-28T09:31:46.966Z,153.80
2022-11-28T09:34:12.723Z,146.02
2022-11-28T09:36:42.345Z,135.40
2022-11-28T09:39:11.723Z,134.35
2022-11-28T09:41:47.081Z,131.40
2022-11-28T09:44:19.661Z,149.77
2022-11-28T09:49:39.998Z,141.03
2022-11-28T09:52:07.427Z,148.02
2022-11-28T09:54:52.080Z,157.75
2022-11-28T09:57:24.457Z,171.60
2022-11-28T09:59:53.858Z,188.27
2022-11-28T10:02:44.966Z,170.25
2022-11-28T10:05:38.991Z,158.05
2022-11-28T10:08:27.857Z,166.47
2022-11-28T10:11:03.935Z,170.95
2022-11-28T10:14:06.185Z,178.80
2022-11-28T10:16:23.029Z,180.55
2022-11-28T10:18:58.581Z,232.77
2022-11-28T10:21:47.369Z,206.90
2022-11-28T10:24:22.195Z,217.77
2022-11-28T10:27:00.309Z,194.67
2022-11-28T10:29:49.460Z,193.95
2022-11-28T10:32:21.888Z,196.22
2022-11-28T10:35:02.595Z,186.25
2022-11-28T10:37:33.488Z,212.48
2022-11-28T10:40:11.926Z,181.63
2022-11-28T10:42:44.352Z,184.87
2022-11-28T10:45:34.955Z,190.03
2022-11-28T10:48:37.312Z,183.12
2022-11-28T10:50:53.767Z,176.87
2022-11-28T10:53:26.516Z,182.25
2022-11-28T10:56:09.897Z,176.25
2022-11-28T10:58:47.856Z,186.67
2022-11-28T11:01:17.227Z,166.25
2022-11-28T11:03:46.774Z,191.15
2022-11-28T11:06:15.984Z,168.30
2022-11-28T11:08:46.982Z,173.97
2022-11-28T11:11:22.061Z,178.30
2022-11-28T11:14:12.408Z,166.40
2022-11-28T11:16:50.662Z,157.47
2022-11-28T11:19:25.103Z,153.45
2022-11-28T11:22:00.577Z,148.00
2022-11-28T11:24:29.928Z,150.82
2022-11-28T11:27:18.319Z,141.97
2022-11-28T11:29:51.379Z,144.05
2022-11-28T11:32:29.912Z,151.25
2022-11-28T11:35:00.533Z,148.47
2022-11-28T11:37:35.229Z,158.22
2022-11-28T11:40:07.997Z,156.90
2022-11-28T11:42:37.398Z,156.47
2022-11-28T11:45:36.048Z,141.15
2022-11-28T11:48:05.569Z,145.07
2022-11-28T11:50:36.446Z,160.95
2022-11-28T11:53:14.092Z,146.25
2022-11-28T11:55:49.320Z,155.12
2022-11-28T11:58:21.680Z,153.78
2022-11-28T12:00:53.010Z,153.20
2022-11-28T12:03:28.341Z,150.10
2022-11-28T12:06:13.714Z,137.00
2022-11-28T12:11:15.605Z,136.32
2022-11-28T12:13:45.259Z,136.62
2022-11-28T12:16:36.441Z,135.60
2022-11-28T12:19:14.576Z,137.80
2022-11-28T12:21:53.097Z,131.43
2022-11-28T12:24:26.038Z,141.88
2022-11-28T12:27:01.460Z,128.45
2022-11-28T12:29:52.159Z,136.82
2022-11-28T12:32:27.902Z,131.75
2022-11-28T12:35:24.740Z,121.30
2022-11-28T12:38:10.636Z,122.33
2022-11-28T12:40:48.815Z,128.78
2022-11-28T12:43:33.454Z,128.53
2022-11-28T12:46:18.457Z,120.92
2022-11-28T12:49:11.130Z,117.03
2022-11-28T12:51:46.274Z,115.52
2022-11-28T12:54:30.521Z,107.63
2022-11-28T12:57:05.756Z,107.17
2022-11-28T12:59:38.303Z,108.78
2022-11-28T13:02:35.126Z,109.55
2022-11-28T13:05:24.199Z,105.35
2022-11-28T13:08:18.088Z,102.12
2022-11-28T13:11:07.018Z,116.15
2022-11-28T13:13:42.117Z,103.15
2022-11-28T13:16:34.026Z,95.35
2022-11-28T13:19:24.827Z,93.97
2022-11-28T13:21:57.378Z,85.30
2022-11-28T13:24:38.782Z,81.50
2022-11-28T13:27:36.571Z,73.87
2022-11-28T13:30:20.379Z,78.05
2022-11-28T13:33:09.297Z,77.27
2022-11-28T13:35:40.428Z,72.35
2022-11-28T13:38:50.497Z,62.85
2022-11-28T13:41:01.458Z,68.05
2022-11-28T13:43:54.767Z,64.25
2022-11-28T13:46:24.490Z,66.70
2022-11-28T13:49:19.782Z,64.12
2022-11-28T13:51:33.510Z,65.60
2022-11-28T13:54:24.283Z,58.78
2022-11-28T13:57:19.091Z,64.32
2022-11-28T13:59:51.635Z,57.05
2022-11-28T14:02:36.851Z,56.90
2022-11-28T14:05:09.187Z,60.20
2022-11-28T14:07:38.997Z,57.50
2022-11-28T14:10:17.348Z,65.28
2022-11-28T14:12:58.069Z,60.67
2022-11-28T14:15:56.550Z,51.23
2022-11-28T14:18:55.833Z,60.00
2022-11-28T14:21:06.039Z,57.85
2022-11-28T14:26:38.002Z,63.28
2022-11-28T14:29:22.448Z,61.92
2022-11-28T14:32:21.689Z,60.10
2022-11-28T14:34:44.947Z,58.58
2022-11-28T14:37:30.147Z,54.60
2022-11-28T14:40:00.224Z,54.50
2022-11-28T14:42:59.768Z,59.90
2022-11-28T14:45:44.525Z,64.00
2022-11-28T14:48:26.537Z,60.80
2022-11-28T14:51:01.387Z,54.33
2022-11-28T14:53:38.534Z,59.45
2022-11-28T14:56:25.876Z,63.35
2022-11-28T14:58:57.534Z,58.92
2022-11-28T15:01:35.916Z,64.40
2022-11-28T15:04:14.392Z,66.60
2022-11-28T15:06:44.710Z,84.92
2022-11-28T15:09:29.740Z,73.52
2022-11-28T15:12:08.507Z,70.50
2022-11-28T15:14:39.839Z,71.62
2022-11-28T15:17:12.744Z,75.55
2022-11-28T15:19:47.423Z,70.15
2022-11-28T15:22:36.228Z,82.95
2022-11-28T15:25:07.353Z,77.55
2022-11-28T15:27:36.692Z,73.25
2022-11-28T15:30:08.456Z,89.95
2022-11-28T15:32:37.931Z,93.65
2022-11-28T15:35:12.484Z,84.70
2022-11-28T15:37:38.585Z,85.85
2022-11-28T15:40:08.951Z,90.83
2022-11-28T15:42:38.936Z,89.07
2022-11-28T15:45:11.447Z,77.25
2022-11-28T15:47:41.042Z,83.55
2022-11-28T15:50:17.291Z,81.17
2022-11-28T15:53:16.618Z,88.45
2022-11-28T15:55:46.209Z,86.92
2022-11-28T15:58:29.130Z,94.77
2022-11-28T16:01:07.171Z,84.67
2022-11-28T16:03:39.970Z,91.78
2022-11-28T16:06:11.133Z,98.72
2022-11-28T16:08:49.030Z,108.63
2022-11-28T16:11:20.339Z,111.80
2022-11-28T16:13:49.930Z,104.92
2022-11-28T16:16:25.221Z,108.83
2022-11-28T16:19:06.169Z,110.20
2022-11-28T16:21:40.896Z,109.32
2022-11-28T16:24:36.935Z,108.40
2022-11-28T16:27:04.437Z,114.85
2022-11-28T16:29:36.212Z,113.85
2022-11-28T16:32:10.514Z,128.57
2022-11-28T16:34:48.177Z,121.33
2022-11-28T16:37:23.256Z,152.95
2022-11-28T16:40:07.039Z,143.97
2022-11-28T16:42:36.570Z,133.03
2022-11-28T16:45:17.496Z,142.00
2022-11-28T16:47:47.303Z,136.22
2022-11-28T16:50:25.324Z,136.18
2022-11-28T16:52:57.851Z,137.10
2022-11-28T16:55:37.056Z,119.20
2022-11-28T16:58:18.865Z,131.65
2022-11-28T17:01:02.347Z,128.45
2022-11-28T17:03:43.975Z,130.72
2022-11-28T17:06:16.633Z,137.80
2022-11-28T17:11:15.205Z,120.95
2022-11-28T17:13:44.711Z,132.47
2022-11-28T17:16:19.647Z,136.25
2022-11-28T17:18:49.637Z,136.95
2022-11-28T17:21:21.735Z,128.68
2022-11-28T17:23:51.069Z,131.52
2022-11-28T17:26:20.282Z,123.87
2022-11-28T17:28:49.635Z,131.15
2022-11-28T17:31:19.326Z,132.93
2022-11-28T17:33:48.635Z,122.17
2022-11-28T17:36:17.901Z,126.65
2022-11-28T17:38:47.384Z,128.57
2022-11-28T17:41:16.594Z,122.25
2022-11-28T17:43:46.002Z,124.75
2022-11-28T17:46:15.448Z,113.60
2022-11-28T17:48:44.698Z,120.05
2022-11-28T17:51:14.394Z,115.90
2022-11-28T17:53:44.183Z,136.40
2022-11-28T17:56:14.571Z,114.97
2022-11-28T17:58:45.067Z,112.62
2022-11-28T18:01:17.679Z,112.25
2022-11-28T18:06:17.554Z,111.35
2022-11-28T18:08:49.149Z,110.08
2022-11-28T18:11:20.127Z,115.32
2022-11-28T18:13:50.082Z,101.80
2022-11-28T18:16:22.948Z,115.42
2022-11-28T18:18:53.619Z,117.82
2022-11-28T18:21:22.988Z,114.12
2022-11-28T18:23:52.476Z,120.77
2022-11-28T18:26:23.975Z,119.45
2022-11-28T18:28:54.106Z,158.90
2022-11-28T18:31:27.401Z,168.72
2022-11-28T18:36:28.390Z,153.87
2022-11-28T18:39:00.019Z,147.43
2022-11-28T18:41:30.147Z,137.03
2022-11-28T18:44:01.076Z,137.50
2022-11-28T18:46:31.323Z,139.90
2022-11-28T18:49:00.882Z,141.92
2022-11-28T18:51:33.219Z,140.70
2022-11-28T18:54:05.121Z,133.03
2022-11-28T18:56:35.919Z,136.18
2022-11-28T18:59:07.269Z,152.85
2022-11-28T19:01:38.398Z,143.30
2022-11-28T19:04:11.103Z,149.50
2022-11-28T19:09:13.026Z,140.75
2022-11-28T19:11:43.551Z,149.50
2022-11-28T19:14:17.788Z,142.95
2022-11-28T19:16:49.609Z,147.72
2022-11-28T19:19:19.533Z,136.18
2022-11-28T19:21:50.513Z,127.78
2022-11-28T19:24:20.048Z,151.57
2022-11-28T19:26:51.123Z,169.57
2022-11-28T19:29:20.641Z,159.87
2022-11-28T19:31:50.317Z,192.07
2022-11-28T19:34:20.740Z,191.85
2022-11-28T19:36:51.857Z,166.97
2022-11-28T19:39:24.979Z,142.13
2022-11-28T19:41:57.050Z,151.97
2022-11-28T19:44:29.246Z,148.20
2022-11-28T19:46:58.816Z,163.90
2022-11-28T19:49:29.425Z,162.45
2022-11-28T19:51:58.935Z,169.20
2022-11-28T19:54:28.932Z,166.68
2022-11-28T19:56:58.238Z,180.30
2022-11-28T19:59:28.897Z,175.72
2022-11-28T20:01:59.399Z,189.87
2022-11-28T20:04:29.012Z,217.40
2022-11-28T20:06:58.615Z,159.97
2022-11-28T20:09:28.197Z,168.93
2022-11-28T20:11:57.646Z,157.65
2022-11-28T20:14:28.838Z,177.85
2022-11-28T20:17:09.838Z,164.95
2022-11-28T20:19:39.158Z,191.45
2022-11-28T20:22:08.729Z,193.85
2022-11-28T20:24:37.938Z,162.43
2022-11-28T20:27:07.500Z,180.22
2022-11-28T20:29:36.749Z,181.65
2022-11-28T20:32:06.169Z,252.97
2022-11-28T20:34:35.666Z,179.50
2022-11-28T20:37:05.586Z,168.35
2022-11-28T20:39:34.936Z,187.95
2022-11-28T20:42:04.781Z,206.38
2022-11-28T20:44:34.161Z,215.15
2022-11-28T20:47:04.209Z,203.75
2022-11-28T20:49:33.657Z,274.02
2022-11-28T20:52:02.922Z,191.07
2022-11-28T20:54:32.201Z,186.07
2022-11-28T20:59:32.740Z,188.95
2022-11-28T21:02:02.198Z,200.78
2022-11-28T21:04:31.659Z,242.43
2022-11-28T21:07:01.129Z,236.25
2022-11-28T21:09:30.513Z,196.95
2022-11-28T21:11:59.876Z,215.68
2022-11-28T21:14:30.186Z,213.05
2022-11-28T21:16:59.842Z,187.18
2022-11-28T21:19:29.191Z,224.30
2022-11-28T21:21:58.578Z,239.75
2022-11-28T21:24:28.053Z,192.00
2022-11-28T21:26:57.379Z,190.70
2022-11-28T21:29:26.626Z,249.55
2022-11-28T21:31:55.989Z,217.72
2022-11-28T21:34:25.465Z,216.40
2022-11-28T21:36:55.164Z,225.57
2022-11-28T21:39:24.497Z,177.07
2022-11-28T21:41:53.786Z,189.85
2022-11-28T21:44:23.032Z,176.25
2022-11-28T21:46:52.394Z,181.95
2022-11-28T21:49:21.658Z,179.53
2022-11-28T21:51:53.200Z,196.20
2022-11-28T21:54:23.540Z,211.77
2022-11-28T21:56:53.271Z,231.90
2022-11-28T21:59:23.255Z,211.72
2022-11-28T22:01:53.354Z,211.32
2022-11-28T22:04:23.309Z,236.30
2022-11-28T22:06:52.623Z,211.05
2022-11-28T22:09:21.964Z,195.82
2022-11-28T22:11:51.178Z,213.95
2022-11-28T22:14:23.996Z,204.90
2022-11-28T22:16:53.285Z,213.40
2022-11-28T22:19:22.981Z,216.78
2022-11-28T22:21:54.624Z,229.45
2022-11-28T22:24:24.500Z,217.85
2022-11-28T22:26:55.223Z,210.90
2022-11-28T22:29:25.849Z,224.27
2022-11-28T22:31:55.718Z,216.40
2022-11-28T22:34:25.021Z,254.70
2022-11-28T22:36:54.499Z,220.85
2022-11-28T22:39:23.787Z,266.17
2022-11-28T22:41:53.356Z,219.68
2022-11-28T22:44:22.736Z,202.32
2022-11-28T22:46:52.197Z,230.92
2022-11-28T22:49:21.440Z,221.90
2022-11-28T22:51:51.012Z,216.97
2022-11-28T22:54:20.342Z,214.48
2022-11-28T22:56:51.156Z,214.93
2022-11-28T22:59:20.903Z,219.00
2022-11-28T23:01:51.030Z,209.00
2022-11-28T23:04:20.513Z,212.57
2022-11-28T23:06:50.241Z,212.50
2022-11-28T23:09:21.073Z,225.87
2022-11-28T23:11:51.367Z,211.10
2022-11-28T23:14:20.990Z,206.90
2022-11-28T23:16:50.480Z,206.95
2022-11-28T23:19:20.325Z,205.12
2022-11-28T23:21:50.970Z,200.10
2022-11-28T23:24:23.340Z,206.25
2022-11-28T23:26:54.313Z,194.10
2022-11-28T23:29:25.026Z,192.95
2022-11-28T23:31:54.461Z,204.97
2022-11-28T23:34:25.453Z,210.38
2022-11-28T23:36:54.855Z,188.87
2022-11-28T23:39:24.364Z,192.45
2022-11-28T23:41:55.565Z,201.88
2022-11-28T23:44:24.791Z,199.72
2022-11-28T23:46:54.084Z,184.57
2022-11-28T23:49:23.320Z,200.47
2022-11-28T23:51:52.544Z,197.37
2022-11-28T23:54:21.839Z,195.80
2022-11-28T23:56:51.317Z,206.70
2022-11-28T23:59:20.512Z,210.82
